createdAt,value
2022-12-03T00:01:20.383Z,1.83
2022-12-03T00:03:48.277Z,1.83
2022-12-03T00:06:16.289Z,1.89
2022-12-03T00:08:44.115Z,1.79
2022-12-03T00:11:11.945Z,1.78
2022-12-03T00:13:39.881Z,1.69
2022-12-03T00:16:09.251Z,1.73
2022-12-03T00:18:37.129Z,1.76
2022-12-03T00:21:05.121Z,1.70
2022-12-03T00:23:35.970Z,1.66
2022-12-03T00:26:08.137Z,1.64
2022-12-03T00:28:35.929Z,1.64
2022-12-03T00:31:03.850Z,1.67
2022-12-03T00:33:33.090Z,1.58
2022-12-03T00:36:01.146Z,1.64
2022-12-03T00:38:28.965Z,1.76
2022-12-03T00:40:56.880Z,1.56
2022-12-03T00:43:24.714Z,1.51
2022-12-03T00:45:53.052Z,1.59
2022-12-03T00:48:20.939Z,1.56
2022-12-03T00:50:50.128Z,1.51
2022-12-03T00:53:18.588Z,1.66
2022-12-03T00:55:46.426Z,1.54
2022-12-03T00:58:14.235Z,1.61
2022-12-03T01:00:42.092Z,1.67
2022-12-03T01:03:09.898Z,1.65
2022-12-03T01:05:37.816Z,1.72
2022-12-03T01:08:07.214Z,1.79
2022-12-03T01:10:35.167Z,1.86
2022-12-03T01:13:03.024Z,1.80
2022-12-03T01:15:30.917Z,1.73
2022-12-03T01:17:58.771Z,1.71
2022-12-03T01:20:26.603Z,1.80
2022-12-03T01:22:54.802Z,1.93
2022-12-03T01:25:24.048Z,1.92
2022-12-03T01:27:51.896Z,1.83
2022-12-03T01:30:19.891Z,1.97
2022-12-03T01:32:46.702Z,1.83
2022-12-03T01:35:14.533Z,1.89
2022-12-03T01:37:42.319Z,1.80
2022-12-03T01:40:13.707Z,1.81
2022-12-03T01:42:43.417Z,1.80
2022-12-03T01:45:13.063Z,1.87
2022-12-03T01:47:41.302Z,1.74
2022-12-03T01:50:15.305Z,1.77
2022-12-03T01:52:43.375Z,1.62
2022-12-03T01:55:15.521Z,1.70
2022-12-03T01:57:47.163Z,1.68
2022-12-03T02:00:16.447Z,1.67
2022-12-03T02:02:45.347Z,1.63
2022-12-03T02:05:18.853Z,1.64
2022-12-03T02:07:47.117Z,1.60
2022-12-03T02:10:16.804Z,1.54
2022-12-03T02:12:50.318Z,1.51
2022-12-03T02:15:18.304Z,1.51
2022-12-03T02:17:46.218Z,1.59
2022-12-03T02:20:15.565Z,1.64
2022-12-03T02:22:48.550Z,1.64
2022-12-03T02:25:18.417Z,1.57
2022-12-03T02:27:46.875Z,1.60
2022-12-03T02:30:17.514Z,1.59
2022-12-03T02:32:45.566Z,1.67
2022-12-03T02:35:17.558Z,1.59
2022-12-03T02:37:46.563Z,1.66
2022-12-03T02:40:18.969Z,1.71
2022-12-03T02:42:47.161Z,1.92
2022-12-03T02:45:17.462Z,1.86
2022-12-03T02:47:46.735Z,1.84
2022-12-03T02:50:17.462Z,1.85
2022-12-03T02:52:46.388Z,1.91
2022-12-03T02:55:15.649Z,1.80
2022-12-03T02:57:46.334Z,1.74
2022-12-03T03:00:15.978Z,1.80
2022-12-03T03:02:44.564Z,1.75
2022-12-03T03:05:13.325Z,1.71
2022-12-03T03:07:41.907Z,1.67
2022-12-03T03:10:13.086Z,1.68
2022-12-03T03:12:41.197Z,1.62
2022-12-03T03:15:11.581Z,1.59
2022-12-03T03:17:39.769Z,1.66
2022-12-03T03:20:10.081Z,1.82
2022-12-03T03:22:39.944Z,1.75
2022-12-03T03:25:09.860Z,1.74
2022-12-03T03:27:38.246Z,1.70
2022-12-03T03:30:08.070Z,1.72
2022-12-03T03:32:39.657Z,1.62
2022-12-03T03:35:08.228Z,1.77
2022-12-03T03:37:36.154Z,1.70
2022-12-03T03:40:04.670Z,1.60
2022-12-03T03:42:32.678Z,1.55
2022-12-03T03:45:00.669Z,1.67
2022-12-03T03:47:28.802Z,1.64
2022-12-03T03:49:58.044Z,1.60
2022-12-03T03:52:25.967Z,1.70
2022-12-03T03:54:54.115Z,1.53
2022-12-03T03:57:22.134Z,1.47
2022-12-03T03:59:49.933Z,1.49
2022-12-03T04:02:20.589Z,1.56
2022-12-03T04:04:49.233Z,1.61
2022-12-03T04:07:18.861Z,1.58
2022-12-03T04:09:46.736Z,1.46
2022-12-03T04:12:32.141Z,1.46
2022-12-03T04:15:00.425Z,1.55
2022-12-03T04:17:28.277Z,1.50
2022-12-03T04:19:56.193Z,1.40
2022-12-03T04:22:39.893Z,1.42
2022-12-03T04:25:26.910Z,1.47
2022-12-03T04:28:21.188Z,1.51
2022-12-03T04:30:49.139Z,1.56
2022-12-03T04:33:34.429Z,1.53
2022-12-03T04:36:02.355Z,1.45
2022-12-03T04:38:31.672Z,1.51
2022-12-03T04:41:03.830Z,1.48
2022-12-03T04:43:33.455Z,1.70
2022-12-03T04:46:02.258Z,1.55
2022-12-03T04:48:30.915Z,1.67
2022-12-03T04:50:58.849Z,1.59
2022-12-03T04:53:26.799Z,1.75
2022-12-03T04:55:56.063Z,1.72
2022-12-03T04:58:23.945Z,1.62
2022-12-03T05:00:52.484Z,1.62
2022-12-03T05:03:20.389Z,1.65
2022-12-03T05:05:48.213Z,1.51
2022-12-03T05:08:16.145Z,1.57
2022-12-03T05:10:44.061Z,1.57
2022-12-03T05:13:13.272Z,1.60
2022-12-03T05:15:41.085Z,1.52
2022-12-03T05:18:08.952Z,1.63
2022-12-03T05:20:45.692Z,1.56
2022-12-03T05:23:17.602Z,1.57
2022-12-03T05:25:45.411Z,1.72
2022-12-03T05:28:14.643Z,1.68
2022-12-03T05:30:42.526Z,1.64
2022-12-03T05:33:10.407Z,1.51
2022-12-03T05:35:38.217Z,1.42
2022-12-03T05:38:06.057Z,1.50
2022-12-03T05:40:33.973Z,1.49
2022-12-03T05:43:01.688Z,1.58
2022-12-03T05:45:32.954Z,1.60
2022-12-03T05:48:02.000Z,1.60
2022-12-03T05:50:31.804Z,1.60
2022-12-03T05:53:00.201Z,1.61
2022-12-03T05:55:28.287Z,1.49
2022-12-03T05:57:56.361Z,1.48
2022-12-03T06:00:25.730Z,1.49
2022-12-03T06:02:55.288Z,1.60
2022-12-03T06:05:23.980Z,1.54
2022-12-03T06:07:53.488Z,1.53
2022-12-03T06:10:23.166Z,1.46
2022-12-03T06:12:51.166Z,1.38
2022-12-03T06:15:19.370Z,1.70
2022-12-03T06:17:47.328Z,1.57
2022-12-03T06:20:18.306Z,1.73
2022-12-03T06:22:46.384Z,1.55
2022-12-03T06:25:15.022Z,1.50
2022-12-03T06:27:43.376Z,1.50
2022-12-03T06:30:13.724Z,1.41
2022-12-03T06:32:41.867Z,1.47
2022-12-03T06:35:10.349Z,1.57
2022-12-03T06:37:39.722Z,1.44
2022-12-03T06:40:09.048Z,1.49
2022-12-03T06:42:37.033Z,1.36
2022-12-03T06:45:05.508Z,1.54
2022-12-03T06:47:33.391Z,1.45
2022-12-03T06:50:01.242Z,1.47
2022-12-03T06:52:29.130Z,1.51
2022-12-03T06:54:58.456Z,1.50
2022-12-03T06:57:26.325Z,1.44
2022-12-03T06:59:54.467Z,1.43
2022-12-03T07:02:22.976Z,1.54
2022-12-03T07:04:51.104Z,1.49
2022-12-03T07:07:19.094Z,1.38
2022-12-03T07:09:46.987Z,1.43
2022-12-03T07:12:16.273Z,1.37
2022-12-03T07:14:44.124Z,1.40
2022-12-03T07:17:12.116Z,1.47
2022-12-03T07:19:40.602Z,1.44
2022-12-03T07:22:08.490Z,1.46
2022-12-03T07:24:36.487Z,1.41
2022-12-03T07:27:04.494Z,1.52
2022-12-03T07:29:33.762Z,1.61
2022-12-03T07:32:01.591Z,1.51
2022-12-03T07:34:29.450Z,1.49
2022-12-03T07:36:57.436Z,1.55
2022-12-03T07:39:25.396Z,1.59
2022-12-03T07:41:53.265Z,1.68
2022-12-03T07:44:21.102Z,1.73
2022-12-03T07:46:50.492Z,1.67
2022-12-03T07:49:18.350Z,1.68
2022-12-03T07:51:53.679Z,1.66
2022-12-03T07:54:21.775Z,1.55
2022-12-03T07:56:49.571Z,1.64
2022-12-03T07:59:17.992Z,1.71
2022-12-03T08:01:45.939Z,1.75
2022-12-03T08:04:18.234Z,1.72
2022-12-03T08:06:46.541Z,1.74
2022-12-03T08:09:16.220Z,1.96
2022-12-03T08:11:45.805Z,1.87
2022-12-03T08:14:14.967Z,1.95
2022-12-03T08:16:44.363Z,2.04
2022-12-03T08:19:13.325Z,1.95
2022-12-03T08:21:42.961Z,1.90
2022-12-03T08:24:15.591Z,1.94
2022-12-03T08:26:44.936Z,1.84
2022-12-03T08:29:14.458Z,1.77
2022-12-03T08:31:42.657Z,1.83
2022-12-03T08:34:18.989Z,1.95
2022-12-03T08:36:49.779Z,1.86
2022-12-03T08:39:33.254Z,1.79
2022-12-03T08:42:27.211Z,1.88
2022-12-03T08:44:56.189Z,1.66
2022-12-03T08:47:25.140Z,1.94
2022-12-03T08:49:55.954Z,1.80
2022-12-03T08:52:32.159Z,1.86
2022-12-03T08:55:00.793Z,1.73
2022-12-03T08:57:30.583Z,1.75
2022-12-03T09:00:01.608Z,1.87
2022-12-03T09:02:33.225Z,1.91
2022-12-03T09:05:12.084Z,1.80
2022-12-03T09:07:41.359Z,1.72
2022-12-03T09:10:10.172Z,1.83
2022-12-03T09:12:38.162Z,1.93
2022-12-03T09:15:06.753Z,1.96
2022-12-03T09:17:34.952Z,1.95
2022-12-03T09:20:03.132Z,1.91
2022-12-03T09:22:31.008Z,1.86
2022-12-03T09:25:00.328Z,2.05
2022-12-03T09:27:28.222Z,1.99
2022-12-03T09:29:56.067Z,1.95
2022-12-03T09:32:24.062Z,2.01
2022-12-03T09:34:52.258Z,1.87
2022-12-03T09:37:21.439Z,1.81
2022-12-03T09:39:49.402Z,1.91
2022-12-03T09:42:18.864Z,1.96
2022-12-03T09:44:46.786Z,1.89
2022-12-03T09:47:14.804Z,1.79
2022-12-03T09:49:42.907Z,1.80
2022-12-03T09:52:23.577Z,1.82
2022-12-03T09:54:53.340Z,1.98
2022-12-03T09:57:22.855Z,2.01
2022-12-03T09:59:50.889Z,2.03
2022-12-03T10:02:22.162Z,2.09
2022-12-03T10:04:50.494Z,2.25
2022-12-03T10:07:18.476Z,2.31
2022-12-03T10:09:46.354Z,2.37
2022-12-03T10:12:15.384Z,2.38
2022-12-03T10:14:44.676Z,2.35
2022-12-03T10:17:13.340Z,2.37
2022-12-03T10:19:42.699Z,2.44
2022-12-03T10:22:10.640Z,2.32
2022-12-03T10:24:39.544Z,2.16
2022-12-03T10:27:22.259Z,2.28
2022-12-03T10:30:02.734Z,2.50
2022-12-03T10:32:41.819Z,2.40
2022-12-03T10:35:12.427Z,2.40
2022-12-03T10:37:57.862Z,2.38
2022-12-03T10:40:27.095Z,2.31
2022-12-03T10:43:13.956Z,2.38
2022-12-03T10:45:43.615Z,2.20
2022-12-03T10:48:14.342Z,2.26
2022-12-03T10:50:50.887Z,2.40
2022-12-03T10:53:19.484Z,2.15
2022-12-03T10:55:48.335Z,2.18
2022-12-03T10:58:21.960Z,2.27
2022-12-03T11:00:52.491Z,2.28
2022-12-03T11:03:25.826Z,2.21
2022-12-03T11:05:55.171Z,2.21
2022-12-03T11:08:24.721Z,2.17
2022-12-03T11:11:00.338Z,2.24
2022-12-03T11:13:38.952Z,2.09
2022-12-03T11:16:08.692Z,2.15
2022-12-03T11:18:59.247Z,2.23
2022-12-03T11:21:27.160Z,2.18
2022-12-03T11:24:28.359Z,2.18
2022-12-03T11:27:18.884Z,2.21
2022-12-03T11:29:57.640Z,2.31
2022-12-03T11:33:08.475Z,2.16
2022-12-03T11:36:02.419Z,2.12
2022-12-03T11:38:52.339Z,2.16
2022-12-03T11:41:22.879Z,2.42
2022-12-03T11:44:19.835Z,2.37
2022-12-03T11:46:48.208Z,2.27
2022-12-03T11:49:39.888Z,2.35
2022-12-03T11:52:24.384Z,2.38
2022-12-03T11:54:55.261Z,2.25
2022-12-03T11:57:27.983Z,2.42
2022-12-03T12:00:05.883Z,2.47
2022-12-03T12:02:39.945Z,2.16
2022-12-03T12:05:22.919Z,2.22
2022-12-03T12:07:52.930Z,2.36
2022-12-03T12:10:41.486Z,2.32
2022-12-03T12:13:27.761Z,2.34
2022-12-03T12:15:56.107Z,2.24
2022-12-03T12:18:38.290Z,2.24
2022-12-03T12:21:41.043Z,2.23
2022-12-03T12:24:38.252Z,2.25
2022-12-03T12:27:07.933Z,2.19
2022-12-03T12:29:37.201Z,2.15
2022-12-03T12:32:15.113Z,2.23
2022-12-03T12:34:44.970Z,2.27
2022-12-03T12:37:15.582Z,2.28
2022-12-03T12:39:45.077Z,2.20
2022-12-03T12:42:28.618Z,2.18
2022-12-03T12:45:00.208Z,2.15
2022-12-03T12:47:31.116Z,2.31
2022-12-03T12:49:59.722Z,2.02
2022-12-03T12:52:28.677Z,1.85
2022-12-03T12:55:03.077Z,1.90
2022-12-03T12:57:33.320Z,1.82
2022-12-03T13:00:01.198Z,1.92
2022-12-03T13:02:40.939Z,2.02
2022-12-03T13:05:14.000Z,2.13
2022-12-03T13:07:44.162Z,2.02
2022-12-03T13:10:41.908Z,2.12
2022-12-03T13:13:24.715Z,2.07
2022-12-03T13:15:58.680Z,1.99
2022-12-03T13:18:29.659Z,1.83
2022-12-03T13:20:57.689Z,1.73
2022-12-03T13:23:32.481Z,1.78
2022-12-03T13:26:22.312Z,1.79
2022-12-03T13:28:52.933Z,1.66
2022-12-03T13:31:26.837Z,1.63
2022-12-03T13:33:56.933Z,1.50
2022-12-03T13:36:31.442Z,1.47
2022-12-03T13:38:59.822Z,1.34
2022-12-03T13:42:01.341Z,1.38
2022-12-03T13:44:31.556Z,1.46
2022-12-03T13:47:02.007Z,1.51
2022-12-03T13:49:30.374Z,1.50
2022-12-03T13:51:58.208Z,1.49
2022-12-03T13:54:28.190Z,1.45
2022-12-03T13:56:57.886Z,1.55
2022-12-03T13:59:26.489Z,1.58
2022-12-03T14:01:54.526Z,1.55
2022-12-03T14:04:22.407Z,1.48
2022-12-03T14:06:50.359Z,1.50
2022-12-03T14:09:18.401Z,1.64
2022-12-03T14:12:03.749Z,1.70
2022-12-03T14:14:33.048Z,1.70
2022-12-03T14:17:01.015Z,1.58
2022-12-03T14:19:29.030Z,1.60
2022-12-03T14:21:57.060Z,1.60
2022-12-03T14:24:25.107Z,1.45
2022-12-03T14:26:53.006Z,1.34
2022-12-03T14:29:21.029Z,1.35
2022-12-03T14:31:50.248Z,1.47
2022-12-03T14:34:18.199Z,1.32
2022-12-03T14:36:46.064Z,1.29
2022-12-03T14:39:13.948Z,1.40
2022-12-03T14:42:07.666Z,1.17
2022-12-03T14:44:35.732Z,1.21
2022-12-03T14:47:05.088Z,1.24
2022-12-03T14:49:33.005Z,1.21
2022-12-03T14:52:00.904Z,1.03
2022-12-03T14:54:28.827Z,1.06
2022-12-03T14:56:56.701Z,1.18
2022-12-03T14:59:27.827Z,0.97
2022-12-03T15:01:56.416Z,0.93
2022-12-03T15:04:25.989Z,1.05
2022-12-03T15:06:53.873Z,1.07
2022-12-03T15:09:21.895Z,0.89
2022-12-03T15:11:50.014Z,0.87
2022-12-03T15:14:18.031Z,0.87
2022-12-03T15:16:46.126Z,0.75
2022-12-03T15:19:15.562Z,0.79
2022-12-03T15:21:45.281Z,0.87
2022-12-03T15:24:13.344Z,0.68
2022-12-03T15:26:41.219Z,0.57
2022-12-03T15:29:09.278Z,0.48
2022-12-03T15:31:37.282Z,0.59
2022-12-03T15:34:05.181Z,0.48
2022-12-03T15:36:33.069Z,0.39
2022-12-03T15:39:02.393Z,0.36
2022-12-03T15:41:30.754Z,0.45
2022-12-03T15:43:59.990Z,0.44
2022-12-03T15:46:28.430Z,0.46
2022-12-03T15:48:56.567Z,0.46
2022-12-03T15:51:39.340Z,0.36
2022-12-03T15:54:08.605Z,0.34
2022-12-03T15:56:37.683Z,0.32
2022-12-03T15:59:05.669Z,0.28
2022-12-03T16:01:33.766Z,0.29
2022-12-03T16:04:01.769Z,0.28
2022-12-03T16:06:29.588Z,0.22
2022-12-03T16:08:57.421Z,0.22
2022-12-03T16:11:26.679Z,0.27
2022-12-03T16:13:54.647Z,0.17
2022-12-03T16:16:22.623Z,0.08
2022-12-03T16:18:50.520Z,0.11
2022-12-03T16:21:22.046Z,0.18
2022-12-03T16:23:54.318Z,0.21
2022-12-03T16:26:22.189Z,0.15
2022-12-03T16:28:51.420Z,0.27
2022-12-03T16:31:19.993Z,0.31
2022-12-03T16:33:48.371Z,0.31
2022-12-03T16:36:16.276Z,0.32
2022-12-03T16:38:44.168Z,0.32
2022-12-03T16:41:12.028Z,0.40
2022-12-03T16:43:39.907Z,0.31
2022-12-03T16:46:25.542Z,0.21
2022-12-03T16:48:55.203Z,0.10
2022-12-03T16:51:23.138Z,0.14
2022-12-03T16:53:50.981Z,0.06
2022-12-03T16:56:18.880Z,0.40
2022-12-03T16:58:46.707Z,0.25
2022-12-03T17:01:15.973Z,0.07
2022-12-03T17:03:43.820Z,-0.05
2022-12-03T17:06:11.661Z,0.00
2022-12-03T17:08:41.063Z,0.21
2022-12-03T17:11:12.498Z,0.08
2022-12-03T17:13:40.450Z,0.02
2022-12-03T17:16:08.457Z,-0.07
2022-12-03T17:18:38.078Z,-0.04
2022-12-03T17:21:06.968Z,0.02
2022-12-03T17:23:34.841Z,0.00
2022-12-03T17:26:02.696Z,-0.03
2022-12-03T17:28:30.625Z,-0.02
2022-12-03T17:30:58.644Z,-0.12
2022-12-03T17:33:26.538Z,-0.19
2022-12-03T17:35:55.687Z,-0.16
2022-12-03T17:38:23.611Z,-0.07
2022-12-03T17:40:51.464Z,-0.11
2022-12-03T17:43:19.303Z,-0.23
2022-12-03T17:45:47.172Z,-0.16
2022-12-03T17:48:15.015Z,-0.07
2022-12-03T17:50:42.985Z,-0.12
2022-12-03T17:53:12.239Z,-0.20
2022-12-03T17:55:44.736Z,-0.15
2022-12-03T17:58:13.561Z,-0.11
2022-12-03T18:00:41.681Z,-0.04
2022-12-03T18:03:09.729Z,-0.08
2022-12-03T18:05:37.611Z,-0.06
2022-12-03T18:08:06.025Z,-0.07
2022-12-03T18:10:35.257Z,-0.09
2022-12-03T18:13:03.181Z,-0.11
2022-12-03T18:15:31.258Z,-0.03
2022-12-03T18:17:59.173Z,-0.09
2022-12-03T18:20:27.093Z,-0.05
2022-12-03T18:22:55.018Z,-0.05
2022-12-03T18:25:22.965Z,-0.07
2022-12-03T18:27:52.240Z,-0.07
2022-12-03T18:30:20.286Z,-0.08
2022-12-03T18:32:48.824Z,-0.11
2022-12-03T18:35:16.893Z,-0.12
2022-12-03T18:37:45.045Z,-0.14
2022-12-03T18:40:18.522Z,-0.05
2022-12-03T18:42:46.569Z,-0.06
2022-12-03T18:45:16.879Z,-0.06
2022-12-03T18:47:44.968Z,-0.09
2022-12-03T18:50:13.635Z,0.07
2022-12-03T18:52:41.547Z,-0.13
2022-12-03T18:55:11.994Z,-0.18
2022-12-03T18:57:39.822Z,-0.19
2022-12-03T19:00:13.469Z,-0.18
2022-12-03T19:03:02.412Z,-0.17
2022-12-03T19:05:30.989Z,-0.19
2022-12-03T19:07:58.950Z,-0.30
2022-12-03T19:10:27.327Z,-0.17
2022-12-03T19:12:55.263Z,-0.19
2022-12-03T19:15:24.017Z,-0.29
2022-12-03T19:17:53.289Z,-0.12
2022-12-03T19:20:21.134Z,-0.12
2022-12-03T19:22:49.064Z,-0.12
2022-12-03T19:25:17.494Z,-0.14
2022-12-03T19:27:50.117Z,-0.27
2022-12-03T19:30:18.720Z,-0.26
2022-12-03T19:32:48.571Z,-0.16
2022-12-03T19:35:18.218Z,-0.13
2022-12-03T19:37:47.938Z,-0.27
2022-12-03T19:40:16.187Z,-0.23
2022-12-03T19:42:44.262Z,-0.31
2022-12-03T19:45:12.662Z,-0.16
2022-12-03T19:47:40.519Z,-0.23
2022-12-03T19:50:09.782Z,-0.33
2022-12-03T19:52:39.101Z,-0.28
2022-12-03T19:55:07.552Z,-0.30
2022-12-03T19:57:35.477Z,-0.23
2022-12-03T20:00:03.797Z,-0.22
2022-12-03T20:02:40.245Z,-0.15
2022-12-03T20:05:08.396Z,-0.15
2022-12-03T20:07:36.263Z,-0.22
2022-12-03T20:10:06.917Z,-0.17
2022-12-03T20:12:34.803Z,-0.30
2022-12-03T20:15:02.749Z,-0.17
2022-12-03T20:17:30.714Z,-0.23
2022-12-03T20:19:58.508Z,-0.16
2022-12-03T20:22:26.425Z,-0.16
2022-12-03T20:24:54.437Z,-0.10
2022-12-03T20:27:23.696Z,-0.15
2022-12-03T20:29:51.645Z,-0.16
2022-12-03T20:32:19.731Z,-0.21
2022-12-03T20:34:48.838Z,-0.19
2022-12-03T20:37:16.731Z,-0.32
2022-12-03T20:39:44.575Z,-0.22
2022-12-03T20:42:12.710Z,-0.23
2022-12-03T20:44:42.201Z,-0.19
2022-12-03T20:47:10.211Z,-0.28
2022-12-03T20:49:38.992Z,-0.30
2022-12-03T20:52:06.974Z,-0.29
2022-12-03T20:54:34.874Z,-0.15
2022-12-03T20:57:02.952Z,-0.20
2022-12-03T20:59:31.717Z,-0.27
2022-12-03T21:02:01.109Z,-0.23
2022-12-03T21:04:29.234Z,-0.18
2022-12-03T21:06:57.738Z,-0.21
2022-12-03T21:09:25.690Z,-0.30
2022-12-03T21:11:53.748Z,-0.15
2022-12-03T21:14:21.913Z,-0.18
2022-12-03T21:19:39.910Z,-0.16
2022-12-03T21:22:08.278Z,-0.24
2022-12-03T21:24:36.422Z,-0.13
2022-12-03T21:27:04.677Z,-0.03
2022-12-03T21:29:32.573Z,-0.15
2022-12-03T21:32:00.577Z,-0.20
2022-12-03T21:34:35.636Z,-0.21
2022-12-03T21:37:05.738Z,-0.17
2022-12-03T21:39:33.602Z,-0.10
2022-12-03T21:42:19.243Z,-0.17
2022-12-03T21:44:49.506Z,-0.11
2022-12-03T21:47:17.552Z,-0.08
2022-12-03T21:49:45.710Z,-0.11
2022-12-03T21:52:15.025Z,-0.26
2022-12-03T21:54:42.906Z,-0.27
2022-12-03T21:57:10.751Z,-0.11
2022-12-03T21:59:38.618Z,-0.14
2022-12-03T22:02:06.627Z,-0.20
2022-12-03T22:04:34.559Z,-0.21
2022-12-03T22:07:02.516Z,-0.04
2022-12-03T22:09:33.341Z,-0.15
2022-12-03T22:12:01.653Z,-0.22
2022-12-03T22:14:29.621Z,-0.23
2022-12-03T22:16:57.488Z,-0.12
2022-12-03T22:19:26.169Z,-0.22
2022-12-03T22:21:54.050Z,-0.22
2022-12-03T22:24:23.623Z,-0.25
2022-12-03T22:26:54.628Z,-0.23
2022-12-03T22:29:22.674Z,-0.07
2022-12-03T22:31:50.542Z,-0.24
2022-12-03T22:34:18.431Z,-0.18
2022-12-03T22:36:46.232Z,-0.19
2022-12-03T22:39:14.130Z,-0.15
2022-12-03T22:41:41.971Z,-0.08
2022-12-03T22:44:11.426Z,-0.22
2022-12-03T22:46:39.431Z,-0.18
2022-12-03T22:49:07.831Z,-0.05
2022-12-03T22:51:36.277Z,-0.05
2022-12-03T22:54:04.382Z,-0.13
2022-12-03T22:56:32.539Z,-0.20
2022-12-03T22:59:00.458Z,-0.28
2022-12-03T23:01:31.273Z,-0.19
2022-12-03T23:03:59.433Z,-0.18
2022-12-03T23:06:27.960Z,-0.20
2022-12-03T23:08:56.180Z,-0.10
2022-12-03T23:11:24.131Z,-0.24
2022-12-03T23:13:52.380Z,-0.14
2022-12-03T23:16:22.286Z,-0.25
2022-12-03T23:18:51.621Z,-0.27
2022-12-03T23:21:28.506Z,-0.12
2022-12-03T23:23:57.896Z,-0.19
2022-12-03T23:26:25.770Z,-0.26
2022-12-03T23:28:53.644Z,-0.27
2022-12-03T23:31:23.057Z,-0.23
2022-12-03T23:33:52.953Z,-0.16
2022-12-03T23:36:21.627Z,-0.21
2022-12-03T23:38:49.790Z,-0.32
2022-12-03T23:41:19.495Z,-0.22
2022-12-03T23:43:47.714Z,-0.14
2022-12-03T23:46:17.018Z,-0.19
2022-12-03T23:48:45.369Z,-0.23
2022-12-03T23:51:16.732Z,-0.22
2022-12-03T23:53:44.767Z,-0.28
2022-12-03T23:56:15.198Z,-0.18
2022-12-03T23:58:43.302Z,-0.23
